createdAt,value
2018-12-19T00:01:35.231Z,10.80
2018-12-19T00:04:04.797Z,13.77
2018-12-19T00:06:33.628Z,11.53
2018-12-19T00:09:04.267Z,11.93
2018-12-19T00:11:33.163Z,12.47
2018-12-19T00:14:02.086Z,9.40
2018-12-19T00:16:31.117Z,9.37
2018-12-19T00:19:00.167Z,10.30
2018-12-19T00:21:29.066Z,12.73
2018-12-19T00:23:58.440Z,11.00
2018-12-19T00:26:27.421Z,12.50
2018-12-19T00:28:56.447Z,12.33
2018-12-19T00:31:25.321Z,10.37
2018-12-19T00:33:54.530Z,10.00
2018-12-19T00:36:24.224Z,9.80
2018-12-19T00:38:53.121Z,11.93
2018-12-19T00:41:22.079Z,13.47
2018-12-19T00:43:51.315Z,10.70
2018-12-19T00:46:20.258Z,12.03
2018-12-19T00:48:49.571Z,12.17
2018-12-19T00:51:18.690Z,9.87
2018-12-19T00:53:47.709Z,10.93
2018-12-19T00:56:16.586Z,12.30
2018-12-19T00:58:46.006Z,12.40
2018-12-19T01:01:15.184Z,12.30
2018-12-19T01:03:44.110Z,10.27
2018-12-19T01:06:13.114Z,10.53
2018-12-19T01:08:42.036Z,8.33
2018-12-19T01:11:11.223Z,10.60
2018-12-19T01:13:40.217Z,13.53
2018-12-19T01:16:09.491Z,8.93
2018-12-19T01:18:38.886Z,13.20
2018-12-19T01:21:07.778Z,14.03
2018-12-19T01:23:38.201Z,11.23
2018-12-19T01:26:07.217Z,12.27
2018-12-19T01:28:36.267Z,10.23
2018-12-19T01:31:05.312Z,11.67
2018-12-19T01:33:34.513Z,9.03
2018-12-19T01:36:03.445Z,11.23
2018-12-19T01:38:32.587Z,11.47
2018-12-19T01:41:01.873Z,14.00
2018-12-19T01:43:30.842Z,9.83
2018-12-19T01:46:00.043Z,10.43
2018-12-19T01:48:28.943Z,10.17
2018-12-19T01:50:57.897Z,13.77
2018-12-19T01:53:26.920Z,11.37
2018-12-19T01:55:56.145Z,10.97
2018-12-19T01:58:25.059Z,12.77
2018-12-19T02:00:54.117Z,8.43
2018-12-19T02:03:23.030Z,12.37
2018-12-19T02:05:51.981Z,14.47
2018-12-19T02:08:21.563Z,12.57
2018-12-19T02:10:50.653Z,11.03
2018-12-19T02:13:20.581Z,11.93
2018-12-19T02:15:50.231Z,11.73
2018-12-19T02:18:19.191Z,10.93
2018-12-19T02:20:48.204Z,14.03
2018-12-19T02:23:17.713Z,12.10
2018-12-19T02:25:46.878Z,11.47
2018-12-19T02:28:15.786Z,10.17
2018-12-19T02:30:44.739Z,16.30
2018-12-19T02:33:13.685Z,13.47
2018-12-19T02:35:42.620Z,10.83
2018-12-19T02:38:11.780Z,11.27
2018-12-19T02:40:40.710Z,19.03
2018-12-19T02:43:10.027Z,12.47
2018-12-19T02:45:39.305Z,14.37
2018-12-19T02:48:08.203Z,9.50
2018-12-19T02:50:37.156Z,12.23
2018-12-19T02:53:06.059Z,9.60
2018-12-19T02:55:35.153Z,13.83
2018-12-19T02:58:04.198Z,12.40
2018-12-19T03:00:33.199Z,10.43
2018-12-19T03:03:02.119Z,14.97
2018-12-19T03:05:31.078Z,10.53
2018-12-19T03:07:59.985Z,10.70
2018-12-19T03:10:29.035Z,9.67
2018-12-19T03:12:59.195Z,16.37
2018-12-19T03:15:28.106Z,10.87
2018-12-19T03:17:57.057Z,14.00
2018-12-19T03:20:26.302Z,8.20
2018-12-19T03:22:55.393Z,12.43
2018-12-19T03:25:24.294Z,12.43
2018-12-19T03:27:53.508Z,14.27
2018-12-19T03:30:22.405Z,10.07
2018-12-19T03:32:51.418Z,11.83
2018-12-19T03:35:20.597Z,10.97
2018-12-19T03:37:49.527Z,9.70
2018-12-19T03:40:18.547Z,8.77
2018-12-19T03:42:47.487Z,12.30
2018-12-19T03:45:16.495Z,12.37
2018-12-19T03:47:45.836Z,11.43
2018-12-19T03:50:15.191Z,9.33
2018-12-19T03:52:44.152Z,15.80
2018-12-19T03:55:13.204Z,9.90
2018-12-19T03:57:42.695Z,11.37
2018-12-19T04:00:11.768Z,10.63
2018-12-19T04:02:40.706Z,9.67
2018-12-19T04:05:09.762Z,12.63
2018-12-19T04:07:38.996Z,13.07
2018-12-19T04:10:08.265Z,12.60
2018-12-19T04:12:37.243Z,11.37
2018-12-19T04:15:06.977Z,11.57
2018-12-19T04:17:36.210Z,12.00
2018-12-19T04:20:05.344Z,11.77
2018-12-19T04:22:34.291Z,10.90
2018-12-19T04:25:03.378Z,9.70
2018-12-19T04:27:32.408Z,12.07
2018-12-19T04:30:01.755Z,10.67
2018-12-19T04:32:31.065Z,11.53
2018-12-19T04:34:59.946Z,9.93
2018-12-19T04:37:28.919Z,10.30
2018-12-19T04:40:05.139Z,13.80
2018-12-19T04:42:28.828Z,9.93
2018-12-19T04:44:57.766Z,10.97
2018-12-19T04:47:26.939Z,11.17
2018-12-19T04:49:55.819Z,13.47
2018-12-19T04:52:24.846Z,13.60
2018-12-19T04:54:53.730Z,13.07
2018-12-19T04:57:22.700Z,13.37
2018-12-19T04:59:51.569Z,11.57
2018-12-19T05:02:20.556Z,11.70
2018-12-19T05:04:49.590Z,10.63
2018-12-19T05:07:20.392Z,12.70
2018-12-19T05:09:49.225Z,12.83
2018-12-19T05:12:18.389Z,10.60
2018-12-19T05:14:47.584Z,13.27
2018-12-19T05:17:16.512Z,11.43
2018-12-19T05:19:45.894Z,11.70
2018-12-19T05:22:14.867Z,14.83
2018-12-19T05:24:43.779Z,11.73
2018-12-19T05:27:13.215Z,9.00
2018-12-19T05:29:42.170Z,11.57
2018-12-19T05:32:11.089Z,13.40
2018-12-19T05:34:40.050Z,11.33
2018-12-19T05:37:09.270Z,10.93
2018-12-19T05:39:38.558Z,11.33
2018-12-19T05:42:07.802Z,10.50
2018-12-19T05:44:36.741Z,11.00
2018-12-19T05:47:06.246Z,10.47
2018-12-19T05:49:35.958Z,10.97
2018-12-19T05:52:05.012Z,13.13
2018-12-19T05:54:34.073Z,9.07
2018-12-19T05:57:03.461Z,11.73
2018-12-19T05:59:32.407Z,8.73
2018-12-19T06:02:01.560Z,13.67
2018-12-19T06:04:31.127Z,9.70
2018-12-19T06:07:00.023Z,10.33
2018-12-19T06:09:28.929Z,11.90
2018-12-19T06:11:57.857Z,11.83
2018-12-19T06:14:26.877Z,10.67
2018-12-19T06:16:55.811Z,10.80
2018-12-19T06:19:24.859Z,12.63
2018-12-19T06:21:53.758Z,12.53
2018-12-19T06:24:23.266Z,11.33
2018-12-19T06:26:52.242Z,10.40
2018-12-19T06:29:21.356Z,11.83
2018-12-19T06:31:50.364Z,12.93
2018-12-19T06:34:19.654Z,11.77
2018-12-19T06:36:48.539Z,11.20
2018-12-19T06:39:17.545Z,12.63
2018-12-19T06:41:47.387Z,10.47
2018-12-19T06:44:16.827Z,12.53
2018-12-19T06:46:46.075Z,12.07
2018-12-19T06:49:15.140Z,12.27
2018-12-19T06:51:44.175Z,12.87
2018-12-19T06:54:13.133Z,14.63
2018-12-19T06:56:42.001Z,13.53
2018-12-19T06:59:10.917Z,11.53
2018-12-19T07:01:39.768Z,12.50
2018-12-19T07:04:08.748Z,11.47
2018-12-19T07:06:37.694Z,12.70
2018-12-19T07:09:08.468Z,12.27
2018-12-19T07:11:37.402Z,12.37
2018-12-19T07:14:06.859Z,14.60
2018-12-19T07:16:36.027Z,13.87
2018-12-19T07:19:05.026Z,14.57
2018-12-19T07:21:33.976Z,15.97
2018-12-19T07:24:02.897Z,12.37
2018-12-19T07:26:31.839Z,12.97
2018-12-19T07:29:00.754Z,14.43
2018-12-19T07:31:29.806Z,15.43
2018-12-19T07:33:58.731Z,16.40
2018-12-19T07:36:27.666Z,16.27
2018-12-19T07:38:56.588Z,14.70
2018-12-19T07:41:25.653Z,15.17
2018-12-19T07:43:54.775Z,13.87
2018-12-19T07:46:24.348Z,14.57
2018-12-19T07:48:53.776Z,17.53
2018-12-19T07:51:22.777Z,12.73
2018-12-19T07:53:51.665Z,14.03
2018-12-19T07:56:20.681Z,13.53
2018-12-19T07:58:49.575Z,15.80
2018-12-19T08:01:18.594Z,16.47
2018-12-19T08:03:47.755Z,14.20
2018-12-19T08:06:17.036Z,13.43
2018-12-19T08:08:46.014Z,14.03
2018-12-19T08:11:15.241Z,13.80
2018-12-19T08:13:44.107Z,13.30
2018-12-19T08:16:13.090Z,14.33
2018-12-19T08:18:42.095Z,15.23
2018-12-19T08:21:11.047Z,14.93
2018-12-19T08:23:39.985Z,15.40
2018-12-19T08:26:08.951Z,14.93
2018-12-19T08:28:38.889Z,15.17
2018-12-19T08:31:07.879Z,11.93
2018-12-19T08:33:36.808Z,14.13
2018-12-19T08:36:05.753Z,14.57
2018-12-19T08:38:34.720Z,14.50
2018-12-19T08:41:03.668Z,15.77
2018-12-19T08:43:32.517Z,17.40
2018-12-19T08:46:02.202Z,13.03
2018-12-19T08:48:31.053Z,14.47
2018-12-19T08:50:59.987Z,15.27
2018-12-19T08:53:29.075Z,14.90
2018-12-19T08:55:58.023Z,12.27
2018-12-19T08:58:27.065Z,15.43
2018-12-19T09:00:56.440Z,16.13
2018-12-19T09:03:25.304Z,15.57
2018-12-19T09:05:54.320Z,14.10
2018-12-19T09:08:23.252Z,15.57
2018-12-19T09:10:52.163Z,13.37
2018-12-19T09:13:21.046Z,16.40
2018-12-19T09:15:50.028Z,16.57
2018-12-19T09:18:20.255Z,14.90
2018-12-19T09:20:50.166Z,16.73
2018-12-19T09:23:19.156Z,18.30
2018-12-19T09:25:48.495Z,16.43
2018-12-19T09:28:17.418Z,18.63
2018-12-19T09:30:46.265Z,17.00
2018-12-19T09:33:15.206Z,16.13
2018-12-19T09:35:44.101Z,18.87
2018-12-19T09:38:13.708Z,17.73
2018-12-19T09:40:42.941Z,18.90
2018-12-19T09:43:11.848Z,18.40
2018-12-19T09:45:40.713Z,18.50
2018-12-19T09:48:09.894Z,18.60
2018-12-19T09:50:38.777Z,18.43
2018-12-19T09:53:08.039Z,15.57
2018-12-19T09:55:37.010Z,17.00
2018-12-19T09:58:06.039Z,16.67
2018-12-19T10:00:35.122Z,18.90
2018-12-19T10:03:04.071Z,18.57
2018-12-19T10:05:33.148Z,17.33
2018-12-19T10:08:02.212Z,17.70
2018-12-19T10:10:31.380Z,19.13
2018-12-19T10:13:00.485Z,17.20
2018-12-19T10:15:29.618Z,22.07
2018-12-19T10:17:58.854Z,20.27
2018-12-19T10:20:28.046Z,21.17
2018-12-19T10:22:57.042Z,19.77
2018-12-19T10:25:26.131Z,19.60
2018-12-19T10:27:55.139Z,20.47
2018-12-19T10:30:25.967Z,22.50
2018-12-19T10:32:57.000Z,18.57
2018-12-19T10:35:26.325Z,18.23
2018-12-19T10:37:55.331Z,20.53
2018-12-19T10:40:25.135Z,21.53
2018-12-19T10:42:54.082Z,22.57
2018-12-19T10:45:22.983Z,21.43
2018-12-19T10:47:51.916Z,21.10
2018-12-19T10:50:20.996Z,20.10
2018-12-19T10:52:49.868Z,20.57
2018-12-19T10:55:18.866Z,19.83
2018-12-19T10:57:47.815Z,25.00
2018-12-19T11:00:22.303Z,21.97
2018-12-19T11:02:51.540Z,21.90
2018-12-19T11:05:20.574Z,23.23
2018-12-19T11:07:49.459Z,24.43
2018-12-19T11:10:18.443Z,23.13
2018-12-19T11:12:47.337Z,23.23
2018-12-19T11:15:16.321Z,22.27
2018-12-19T11:17:45.708Z,22.17
2018-12-19T11:20:14.682Z,24.07
2018-12-19T11:22:43.517Z,23.50
2018-12-19T11:25:12.481Z,19.93
2018-12-19T11:27:41.480Z,20.50
2018-12-19T11:30:10.733Z,20.40
2018-12-19T11:32:40.000Z,20.27
2018-12-19T11:35:08.996Z,23.70
2018-12-19T11:37:37.859Z,22.60
2018-12-19T11:40:10.875Z,21.23
2018-12-19T11:42:40.259Z,21.33
2018-12-19T11:45:10.286Z,20.80
2018-12-19T11:47:39.261Z,22.93
2018-12-19T11:50:10.564Z,21.43
2018-12-19T11:52:39.674Z,22.00
2018-12-19T11:55:09.012Z,21.10
2018-12-19T11:57:38.186Z,21.40
2018-12-19T12:00:10.731Z,20.53
2018-12-19T12:02:40.429Z,19.73
2018-12-19T12:05:11.727Z,21.90
2018-12-19T12:07:41.103Z,17.67
2018-12-19T12:10:11.396Z,20.30
2018-12-19T12:12:40.646Z,22.40
2018-12-19T12:15:10.256Z,24.97
2018-12-19T12:17:40.911Z,22.97
2018-12-19T12:20:10.201Z,20.27
2018-12-19T12:22:41.047Z,20.70
2018-12-19T12:25:10.659Z,24.40
2018-12-19T12:27:39.871Z,18.77
2018-12-19T12:30:09.890Z,16.83
2018-12-19T12:32:39.871Z,19.00
2018-12-19T12:35:09.614Z,18.03
2018-12-19T12:37:38.867Z,20.03
2018-12-19T12:40:09.647Z,20.47
2018-12-19T12:42:38.946Z,21.37
2018-12-19T12:45:10.065Z,20.50
2018-12-19T12:47:39.419Z,18.97
2018-12-19T12:50:08.672Z,18.33
2018-12-19T12:52:38.861Z,23.43
2018-12-19T12:55:08.098Z,20.70
2018-12-19T12:57:38.146Z,24.17
2018-12-19T13:00:07.847Z,21.90
2018-12-19T13:02:37.932Z,20.90
2018-12-19T13:05:07.199Z,21.93
2018-12-19T13:07:36.791Z,21.30
2018-12-19T13:10:08.594Z,24.20
2018-12-19T13:12:37.811Z,21.13
2018-12-19T13:15:08.250Z,21.40
2018-12-19T13:17:37.471Z,22.53
2018-12-19T13:20:06.790Z,22.23
2018-12-19T13:22:35.739Z,22.70
2018-12-19T13:25:06.103Z,24.33
2018-12-19T13:27:35.034Z,22.77
2018-12-19T13:30:04.916Z,24.80
2018-12-19T13:32:33.946Z,23.67
2018-12-19T13:35:03.294Z,22.63
2018-12-19T13:37:32.298Z,22.80
2018-12-19T13:40:01.142Z,22.10
2018-12-19T13:42:30.058Z,20.50
2018-12-19T13:44:58.945Z,24.37
2018-12-19T13:47:28.127Z,21.90
2018-12-19T13:49:57.108Z,20.50
2018-12-19T13:52:26.313Z,21.43
2018-12-19T13:54:55.434Z,23.40
2018-12-19T13:57:24.452Z,22.03
2018-12-19T13:59:53.637Z,26.50
2018-12-19T14:02:22.584Z,31.07
2018-12-19T14:04:51.619Z,25.93
2018-12-19T14:07:20.619Z,24.53
2018-12-19T14:09:49.767Z,27.13
2018-12-19T14:12:18.726Z,26.37
2018-12-19T14:14:47.799Z,27.53
2018-12-19T14:17:17.095Z,25.77
2018-12-19T14:19:45.936Z,24.90
2018-12-19T14:22:14.844Z,28.83
2018-12-19T14:24:43.711Z,26.43
2018-12-19T14:27:12.677Z,26.97
2018-12-19T14:29:42.274Z,26.63
2018-12-19T14:32:11.684Z,25.53
2018-12-19T14:34:40.977Z,26.80
2018-12-19T14:37:10.022Z,26.43
2018-12-19T14:39:38.958Z,26.87
2018-12-19T14:42:07.868Z,26.97
2018-12-19T14:44:36.721Z,25.50
2018-12-19T14:47:05.901Z,25.13
2018-12-19T14:49:34.879Z,23.40
2018-12-19T14:52:03.784Z,25.60
2018-12-19T14:54:33.995Z,24.40
2018-12-19T14:57:02.892Z,25.70
2018-12-19T14:59:31.815Z,24.30
2018-12-19T15:02:02.831Z,23.57
2018-12-19T15:04:32.687Z,22.43
2018-12-19T15:07:01.831Z,24.23
2018-12-19T15:09:30.852Z,22.50
2018-12-19T15:11:59.890Z,23.67
2018-12-19T15:14:29.391Z,23.77
2018-12-19T15:16:58.373Z,24.23
2018-12-19T15:19:27.592Z,21.43
2018-12-19T15:21:56.480Z,23.87
2018-12-19T15:24:25.429Z,22.70
2018-12-19T15:26:54.282Z,20.37
2018-12-19T15:29:24.375Z,19.10
2018-12-19T15:31:53.235Z,19.60
2018-12-19T15:34:22.150Z,20.07
2018-12-19T15:36:51.602Z,20.30
2018-12-19T15:39:20.837Z,20.73
2018-12-19T15:41:49.799Z,19.27
2018-12-19T15:44:19.050Z,20.43
2018-12-19T15:46:47.921Z,17.60
2018-12-19T15:49:16.843Z,19.17
2018-12-19T15:51:45.659Z,19.13
2018-12-19T15:54:14.765Z,20.77
2018-12-19T15:56:43.679Z,19.93
2018-12-19T15:59:12.660Z,18.47
2018-12-19T16:01:41.535Z,19.00
2018-12-19T16:04:10.557Z,19.90
2018-12-19T16:06:39.550Z,18.00
2018-12-19T16:09:09.861Z,19.00
2018-12-19T16:11:38.849Z,19.47
2018-12-19T16:14:08.132Z,20.13
2018-12-19T16:16:37.641Z,16.80
2018-12-19T16:19:06.616Z,21.00
2018-12-19T16:21:35.610Z,18.87
2018-12-19T16:24:04.625Z,19.67
2018-12-19T16:26:33.489Z,19.23
2018-12-19T16:29:02.482Z,20.87
2018-12-19T16:31:31.523Z,19.73
2018-12-19T16:34:00.757Z,22.97
2018-12-19T16:36:29.618Z,21.53
2018-12-19T16:38:58.522Z,20.00
2018-12-19T16:41:27.448Z,20.90
2018-12-19T16:43:56.468Z,22.27
2018-12-19T16:46:25.321Z,21.90
2018-12-19T16:48:54.192Z,21.00
2018-12-19T16:51:23.204Z,20.63
2018-12-19T16:53:52.058Z,21.60
2018-12-19T16:56:21.138Z,21.70
2018-12-19T16:58:50.277Z,21.97
2018-12-19T17:01:19.203Z,21.27
2018-12-19T17:03:49.110Z,20.67
2018-12-19T17:06:18.048Z,22.93
2018-12-19T17:08:47.814Z,20.10
2018-12-19T17:11:16.710Z,21.30
2018-12-19T17:13:45.602Z,21.77
2018-12-19T17:16:14.614Z,20.90
2018-12-19T17:18:43.965Z,19.33
2018-12-19T17:21:12.985Z,23.70
2018-12-19T17:23:42.175Z,20.97
2018-12-19T17:26:11.206Z,20.97
2018-12-19T17:28:40.085Z,21.10
2018-12-19T17:31:09.084Z,21.27
2018-12-19T17:33:38.124Z,21.93
2018-12-19T17:36:08.078Z,19.67
2018-12-19T17:38:37.133Z,23.27
2018-12-19T17:41:06.036Z,17.90
2018-12-19T17:43:35.118Z,21.03
2018-12-19T17:46:04.097Z,19.77
2018-12-19T17:48:33.008Z,21.80
2018-12-19T17:51:01.855Z,24.53
2018-12-19T17:53:30.797Z,22.17
2018-12-19T17:55:59.957Z,19.20
2018-12-19T17:58:29.929Z,22.73
2018-12-19T18:00:59.015Z,23.27
2018-12-19T18:03:27.906Z,24.00
2018-12-19T18:05:56.777Z,26.67
2018-12-19T18:08:26.492Z,22.50
2018-12-19T18:10:55.434Z,25.23
2018-12-19T18:13:24.595Z,22.17
2018-12-19T18:15:53.525Z,25.17
2018-12-19T18:18:22.452Z,18.93
2018-12-19T18:20:51.289Z,23.33
2018-12-19T18:23:20.363Z,21.07
2018-12-19T18:25:49.377Z,20.47
2018-12-19T18:28:18.470Z,23.47
2018-12-19T18:30:47.538Z,27.87
2018-12-19T18:33:16.480Z,19.93
2018-12-19T18:35:45.496Z,20.63
2018-12-19T18:38:14.408Z,21.87
2018-12-19T18:40:43.353Z,23.43
2018-12-19T18:43:13.083Z,24.17
2018-12-19T18:45:42.228Z,22.57
2018-12-19T18:48:11.297Z,22.27
2018-12-19T18:50:40.207Z,22.13
2018-12-19T18:53:09.295Z,25.20
2018-12-19T18:55:38.257Z,25.03
2018-12-19T18:58:07.275Z,21.97
2018-12-19T19:00:38.262Z,23.07
2018-12-19T19:03:07.294Z,21.60
2018-12-19T19:05:36.417Z,22.33
2018-12-19T19:08:05.447Z,23.87
2018-12-19T19:10:34.456Z,23.33
2018-12-19T19:13:03.373Z,22.03
2018-12-19T19:15:32.443Z,25.23
2018-12-19T19:18:02.779Z,23.50
2018-12-19T19:20:31.695Z,23.67
2018-12-19T19:23:00.651Z,24.07
2018-12-19T19:25:29.690Z,24.93
2018-12-19T19:27:58.754Z,24.97
2018-12-19T19:30:28.883Z,21.33
2018-12-19T19:32:57.851Z,21.17
2018-12-19T19:35:27.955Z,22.77
2018-12-19T19:37:57.597Z,23.27
2018-12-19T19:40:26.634Z,21.70
2018-12-19T19:42:56.086Z,20.57
2018-12-19T19:45:25.004Z,25.83
2018-12-19T19:47:54.012Z,20.40
2018-12-19T19:50:23.157Z,22.03
2018-12-19T19:52:52.219Z,22.80
2018-12-19T19:55:21.291Z,20.07
2018-12-19T19:57:50.671Z,20.83
2018-12-19T20:00:25.736Z,23.03
2018-12-19T20:02:55.669Z,23.50
2018-12-19T20:05:25.233Z,23.60
2018-12-19T20:07:54.339Z,21.87
2018-12-19T20:10:24.180Z,22.73
2018-12-19T20:12:53.237Z,24.50
2018-12-19T20:15:22.488Z,25.47
2018-12-19T20:17:51.463Z,23.60
2018-12-19T20:20:20.469Z,21.70
2018-12-19T20:22:49.382Z,20.53
2018-12-19T20:25:18.736Z,22.67
2018-12-19T20:27:47.752Z,23.23
2018-12-19T20:30:17.141Z,21.17
2018-12-19T20:32:46.887Z,21.87
2018-12-19T20:35:16.107Z,21.50
2018-12-19T20:37:46.219Z,23.23
2018-12-19T20:40:15.193Z,21.93
2018-12-19T20:42:44.138Z,22.73
2018-12-19T20:45:13.437Z,21.70
2018-12-19T20:47:42.449Z,20.73
2018-12-19T20:50:11.363Z,23.00
2018-12-19T20:52:40.306Z,22.33
2018-12-19T20:55:09.232Z,23.10
2018-12-19T20:57:38.123Z,19.33
2018-12-19T21:00:07.660Z,22.40
2018-12-19T21:02:37.041Z,20.07
2018-12-19T21:05:06.274Z,21.67
2018-12-19T21:07:35.171Z,26.87
2018-12-19T21:10:05.540Z,24.90
2018-12-19T21:12:34.403Z,21.87
2018-12-19T21:15:03.952Z,24.37
2018-12-19T21:17:38.391Z,20.70
2018-12-19T21:20:07.620Z,24.60
2018-12-19T21:22:36.575Z,22.60
2018-12-19T21:25:05.951Z,25.97
2018-12-19T21:27:34.899Z,19.30
2018-12-19T21:30:04.968Z,20.70
2018-12-19T21:32:34.185Z,21.97
2018-12-19T21:35:03.291Z,24.13
2018-12-19T21:37:33.015Z,22.90
2018-12-19T21:40:02.807Z,21.30
2018-12-19T21:42:31.832Z,20.70
2018-12-19T21:45:02.802Z,23.83
2018-12-19T21:47:32.397Z,22.00
2018-12-19T21:50:01.476Z,22.60
2018-12-19T21:52:30.506Z,22.17
2018-12-19T21:54:59.462Z,22.57
2018-12-19T21:57:28.510Z,23.33
2018-12-19T21:59:57.591Z,21.03
2018-12-19T22:02:26.484Z,23.53
2018-12-19T22:04:55.469Z,21.50
2018-12-19T22:07:24.387Z,22.03
2018-12-19T22:09:53.450Z,19.63
2018-12-19T22:12:22.958Z,20.07
2018-12-19T22:14:53.195Z,21.80
2018-12-19T22:17:27.833Z,22.33
2018-12-19T22:19:56.775Z,27.53
2018-12-19T22:22:25.795Z,26.90
2018-12-19T22:24:54.772Z,23.50
2018-12-19T22:27:23.867Z,23.03
2018-12-19T22:29:52.903Z,22.80
2018-12-19T22:32:21.886Z,20.83
2018-12-19T22:34:50.894Z,23.53
2018-12-19T22:37:19.834Z,22.90
2018-12-19T22:39:49.153Z,23.00
2018-12-19T22:42:18.119Z,24.73
2018-12-19T22:44:47.201Z,24.17
2018-12-19T22:47:16.246Z,23.73
2018-12-19T22:49:45.357Z,21.23
2018-12-19T22:52:14.370Z,23.50
2018-12-19T22:54:43.325Z,21.87
2018-12-19T22:57:12.388Z,21.33
2018-12-19T22:59:41.411Z,24.87
2018-12-19T23:02:16.207Z,22.13
2018-12-19T23:04:45.169Z,22.90
2018-12-19T23:07:14.126Z,21.10
2018-12-19T23:09:43.036Z,23.03
2018-12-19T23:12:11.983Z,22.37
2018-12-19T23:14:41.242Z,24.73
2018-12-19T23:17:16.109Z,20.67
2018-12-19T23:19:45.504Z,21.53
2018-12-19T23:22:14.906Z,21.10
2018-12-19T23:24:43.865Z,23.03
2018-12-19T23:27:12.864Z,22.33
2018-12-19T23:29:41.850Z,23.00
2018-12-19T23:32:10.874Z,25.73
2018-12-19T23:34:39.957Z,25.17
2018-12-19T23:37:09.541Z,23.50
2018-12-19T23:39:38.797Z,22.77
2018-12-19T23:42:07.787Z,25.43
2018-12-19T23:44:36.789Z,24.20
2018-12-19T23:47:06.026Z,20.37
2018-12-19T23:49:35.075Z,23.30
2018-12-19T23:52:05.099Z,24.43
2018-12-19T23:54:34.112Z,22.80
2018-12-19T23:57:03.107Z,22.93
2018-12-19T23:59:32.108Z,24.90
